createdAt,value
2023-03-17T00:01:54.989Z,26.49
2023-03-17T00:04:24.247Z,26.45
2023-03-17T00:06:52.889Z,26.46
2023-03-17T00:09:22.385Z,26.48
2023-03-17T00:11:50.164Z,26.69
2023-03-17T00:14:18.961Z,26.53
2023-03-17T00:16:49.699Z,26.53
2023-03-17T00:19:18.183Z,26.51
2023-03-17T00:21:47.141Z,26.51
2023-03-17T00:24:15.423Z,26.45
2023-03-17T00:26:43.385Z,26.60
2023-03-17T00:32:52.827Z,26.57
2023-03-17T00:35:23.038Z,26.59
2023-03-17T00:37:52.487Z,26.54
2023-03-17T00:40:24.185Z,26.42
2023-03-17T00:42:52.339Z,26.44
2023-03-17T00:45:20.178Z,26.43
2023-03-17T00:47:47.768Z,26.47
2023-03-17T00:50:18.374Z,26.51
2023-03-17T00:52:46.397Z,26.46
2023-03-17T00:55:14.528Z,26.65
2023-03-17T00:57:42.387Z,26.39
2023-03-17T01:00:18.794Z,26.50
2023-03-17T01:02:46.754Z,26.47
2023-03-17T01:05:14.319Z,26.38
2023-03-17T01:07:42.864Z,26.49
2023-03-17T01:10:14.297Z,26.47
2023-03-17T01:12:41.570Z,26.51
2023-03-17T01:15:09.210Z,26.54
2023-03-17T01:17:37.779Z,26.52
2023-03-17T01:20:06.734Z,26.39
2023-03-17T01:22:34.808Z,26.46
2023-03-17T01:25:02.218Z,26.43
2023-03-17T01:27:33.977Z,26.60
2023-03-17T01:30:01.372Z,26.57
2023-03-17T01:32:28.654Z,26.44
2023-03-17T01:34:56.052Z,26.48
2023-03-17T01:37:24.158Z,26.41
2023-03-17T01:39:52.669Z,26.44
2023-03-17T01:42:21.004Z,26.85
2023-03-17T01:45:02.398Z,26.45
2023-03-17T01:47:32.791Z,26.39
2023-03-17T01:50:03.034Z,26.46
2023-03-17T01:52:30.364Z,26.56
2023-03-17T01:54:57.802Z,26.53
2023-03-17T01:57:39.738Z,26.33
2023-03-17T02:00:09.521Z,26.49
2023-03-17T02:02:44.406Z,26.73
2023-03-17T02:05:13.326Z,26.49
2023-03-17T02:07:40.978Z,26.47
2023-03-17T02:10:09.085Z,26.80
2023-03-17T02:12:40.720Z,26.73
2023-03-17T02:15:09.702Z,26.82
2023-03-17T02:17:37.209Z,26.82
2023-03-17T02:20:17.281Z,26.67
2023-03-17T02:22:49.692Z,26.57
2023-03-17T02:25:17.604Z,26.56
2023-03-17T02:27:46.499Z,26.61
2023-03-17T02:30:15.778Z,26.58
2023-03-17T02:32:43.575Z,26.62
2023-03-17T02:35:11.143Z,26.61
2023-03-17T02:37:38.584Z,26.49
2023-03-17T02:40:06.890Z,26.54
2023-03-17T02:42:34.351Z,26.45
2023-03-17T02:45:02.327Z,26.77
2023-03-17T02:47:29.656Z,26.69
2023-03-17T02:49:56.938Z,26.64
2023-03-17T02:52:24.501Z,26.58
2023-03-17T02:54:51.713Z,26.60
2023-03-17T02:57:18.932Z,26.83
2023-03-17T02:59:46.452Z,26.54
2023-03-17T03:02:14.405Z,26.61
2023-03-17T03:04:42.002Z,26.73
2023-03-17T03:07:10.135Z,26.82
2023-03-17T03:09:37.555Z,26.76
2023-03-17T03:12:05.103Z,26.92
2023-03-17T03:14:32.605Z,26.91
2023-03-17T03:16:59.974Z,26.94
2023-03-17T03:19:27.150Z,26.59
2023-03-17T03:21:54.401Z,26.78
2023-03-17T03:24:21.646Z,26.97
2023-03-17T03:26:49.047Z,26.71
2023-03-17T03:29:16.950Z,26.98
2023-03-17T03:31:44.402Z,26.65
2023-03-17T03:34:11.692Z,26.78
2023-03-17T03:36:39.067Z,26.90
2023-03-17T03:39:06.308Z,26.76
2023-03-17T03:41:33.707Z,26.67
2023-03-17T03:44:01.124Z,26.79
2023-03-17T03:46:28.611Z,26.51
2023-03-17T03:48:55.848Z,26.59
2023-03-17T03:51:23.280Z,26.43
2023-03-17T03:53:50.539Z,26.52
2023-03-17T03:56:17.761Z,26.42
2023-03-17T03:58:45.202Z,26.66
2023-03-17T04:01:12.694Z,27.02
2023-03-17T04:03:39.946Z,26.84
2023-03-17T04:06:07.207Z,26.74
2023-03-17T04:08:34.756Z,26.68
2023-03-17T04:11:02.436Z,26.65
2023-03-17T04:13:29.641Z,26.64
2023-03-17T04:15:57.252Z,27.09
2023-03-17T04:18:24.510Z,26.83
2023-03-17T04:20:51.776Z,26.80
2023-03-17T04:23:19.326Z,26.89
2023-03-17T04:25:47.031Z,26.73
2023-03-17T04:28:14.250Z,26.74
2023-03-17T04:30:41.747Z,26.91
2023-03-17T04:33:09.054Z,27.15
2023-03-17T04:35:36.438Z,27.27
2023-03-17T04:38:03.965Z,27.02
2023-03-17T04:40:31.982Z,26.99
2023-03-17T04:43:00.146Z,26.66
2023-03-17T04:45:28.758Z,26.37
2023-03-17T04:47:56.178Z,26.95
2023-03-17T04:50:23.645Z,27.15
2023-03-17T04:52:51.004Z,26.75
2023-03-17T04:55:18.280Z,26.94
2023-03-17T04:57:46.022Z,26.92
2023-03-17T05:00:15.614Z,26.76
2023-03-17T05:02:42.961Z,26.84
2023-03-17T05:05:10.339Z,26.35
2023-03-17T05:07:37.743Z,27.02
2023-03-17T05:10:05.656Z,27.11
2023-03-17T05:12:32.811Z,27.14
2023-03-17T05:15:00.094Z,27.00
2023-03-17T05:17:27.505Z,26.90
2023-03-17T05:19:54.715Z,26.57
2023-03-17T05:22:22.152Z,26.73
2023-03-17T05:24:49.434Z,26.29
2023-03-17T05:27:16.782Z,26.69
2023-03-17T05:29:44.073Z,26.61
2023-03-17T05:32:11.768Z,26.87
2023-03-17T05:34:39.061Z,25.83
2023-03-17T05:37:07.711Z,26.79
2023-03-17T05:39:34.935Z,26.67
2023-03-17T05:42:02.361Z,26.78
2023-03-17T05:44:29.883Z,26.59
2023-03-17T05:46:59.696Z,26.94
2023-03-17T05:49:27.382Z,26.91
2023-03-17T05:51:55.384Z,26.19
2023-03-17T05:54:23.189Z,26.52
2023-03-17T05:56:50.873Z,26.98
2023-03-17T05:59:18.606Z,26.80
2023-03-17T06:01:46.215Z,26.82
2023-03-17T06:04:13.582Z,27.03
2023-03-17T06:06:41.424Z,26.70
2023-03-17T06:09:08.687Z,26.82
2023-03-17T06:11:37.008Z,27.02
2023-03-17T06:14:04.736Z,26.85
2023-03-17T06:16:33.322Z,26.80
2023-03-17T06:19:01.032Z,26.99
2023-03-17T06:21:28.386Z,26.88
2023-03-17T06:23:55.780Z,26.77
2023-03-17T06:26:23.149Z,26.50
2023-03-17T06:28:50.556Z,26.99
2023-03-17T06:31:18.053Z,26.76
2023-03-17T06:33:45.532Z,26.82
2023-03-17T06:36:12.991Z,26.53
2023-03-17T06:38:40.664Z,26.58
2023-03-17T06:41:09.187Z,26.88
2023-03-17T06:43:36.669Z,26.73
2023-03-17T06:46:04.347Z,26.84
2023-03-17T06:48:31.726Z,26.94
2023-03-17T06:50:59.108Z,26.59
2023-03-17T06:53:26.498Z,26.46
2023-03-17T06:55:53.757Z,26.93
2023-03-17T06:58:21.883Z,26.90
2023-03-17T07:00:49.165Z,26.86
2023-03-17T07:03:16.965Z,26.76
2023-03-17T07:05:44.662Z,26.56
2023-03-17T07:08:11.968Z,27.07
2023-03-17T07:10:41.172Z,26.50
2023-03-17T07:13:08.769Z,26.76
2023-03-17T07:15:37.459Z,26.93
2023-03-17T07:18:06.502Z,26.84
2023-03-17T07:20:33.809Z,26.95
2023-03-17T07:23:01.341Z,26.92
2023-03-17T07:25:28.652Z,26.95
2023-03-17T07:27:56.744Z,26.72
2023-03-17T07:30:24.006Z,26.65
2023-03-17T07:32:51.499Z,27.04
2023-03-17T07:35:19.414Z,26.84
2023-03-17T07:37:47.432Z,26.67
2023-03-17T07:40:14.759Z,26.51
2023-03-17T07:42:42.459Z,26.41
2023-03-17T07:45:10.103Z,26.79
2023-03-17T07:47:37.565Z,26.76
2023-03-17T07:50:05.333Z,26.05
2023-03-17T07:52:32.674Z,26.63
2023-03-17T07:54:59.862Z,25.66
2023-03-17T07:57:27.453Z,25.86
2023-03-17T07:59:54.797Z,26.05
2023-03-17T08:02:22.334Z,25.70
2023-03-17T08:04:51.158Z,26.49
2023-03-17T08:07:18.617Z,25.27
2023-03-17T08:09:46.584Z,25.23
2023-03-17T08:12:14.749Z,25.27
2023-03-17T08:14:41.992Z,24.86
2023-03-17T08:17:09.493Z,26.06
2023-03-17T08:19:36.879Z,26.04
2023-03-17T08:22:04.386Z,25.55
2023-03-17T08:24:32.630Z,25.97
2023-03-17T08:27:00.988Z,26.18
2023-03-17T08:29:29.258Z,26.09
2023-03-17T08:31:57.340Z,26.32
2023-03-17T08:34:24.666Z,25.90
2023-03-17T08:36:52.588Z,25.95
2023-03-17T08:39:20.576Z,25.09
2023-03-17T08:41:47.975Z,25.12
2023-03-17T08:44:15.228Z,25.23
2023-03-17T08:46:42.753Z,25.11
2023-03-17T08:49:10.816Z,24.36
2023-03-17T08:51:38.762Z,26.28
2023-03-17T08:54:06.995Z,26.50
2023-03-17T08:56:35.038Z,25.37
2023-03-17T08:59:02.223Z,25.13
2023-03-17T09:01:29.623Z,26.51
2023-03-17T09:03:57.026Z,25.72
2023-03-17T09:06:25.583Z,24.88
2023-03-17T09:08:55.615Z,24.65
2023-03-17T09:11:24.862Z,24.45
2023-03-17T09:13:52.670Z,25.40
2023-03-17T09:16:20.088Z,24.99
2023-03-17T09:18:47.484Z,25.02
2023-03-17T09:21:15.395Z,25.72
2023-03-17T09:23:43.398Z,25.23
2023-03-17T09:26:12.443Z,25.26
2023-03-17T09:28:39.842Z,24.69
2023-03-17T09:31:11.690Z,25.07
2023-03-17T09:33:40.741Z,24.87
2023-03-17T09:36:08.995Z,24.30
2023-03-17T09:38:37.358Z,25.71
2023-03-17T09:41:18.477Z,25.61
2023-03-17T09:43:45.974Z,26.28
2023-03-17T09:46:36.593Z,25.73
2023-03-17T09:49:08.866Z,25.66
2023-03-17T09:51:38.817Z,24.74
2023-03-17T09:54:16.557Z,23.80
2023-03-17T09:56:48.349Z,25.24
2023-03-17T09:59:21.813Z,25.21
2023-03-17T10:01:49.706Z,25.24
2023-03-17T10:04:18.864Z,25.75
2023-03-17T10:06:46.958Z,26.60
2023-03-17T10:09:27.217Z,26.22
2023-03-17T10:12:02.254Z,25.87
2023-03-17T10:14:35.608Z,25.81
2023-03-17T10:17:21.643Z,25.21
2023-03-17T10:19:59.901Z,25.78
2023-03-17T10:22:59.616Z,25.83
2023-03-17T10:25:34.455Z,25.64
2023-03-17T10:28:08.700Z,25.69
2023-03-17T10:30:36.516Z,25.57
2023-03-17T10:33:07.287Z,26.10
2023-03-17T10:35:36.530Z,25.47
2023-03-17T10:38:16.379Z,25.68
2023-03-17T10:40:57.482Z,24.88
2023-03-17T10:43:29.234Z,25.38
2023-03-17T10:46:01.716Z,26.15
2023-03-17T10:48:30.066Z,25.25
2023-03-17T10:50:58.804Z,25.19
2023-03-17T10:53:30.367Z,25.24
2023-03-17T10:56:07.409Z,24.77
2023-03-17T10:58:35.069Z,24.41
2023-03-17T11:01:08.395Z,25.26
2023-03-17T11:03:38.996Z,25.45
2023-03-17T11:06:08.812Z,25.32
2023-03-17T11:08:39.613Z,24.56
2023-03-17T11:11:08.571Z,24.43
2023-03-17T11:13:36.644Z,25.13
2023-03-17T11:16:07.441Z,25.26
2023-03-17T11:18:36.724Z,25.41
2023-03-17T11:21:04.164Z,25.23
2023-03-17T11:23:51.670Z,25.30
2023-03-17T11:26:37.755Z,25.80
2023-03-17T11:29:07.957Z,25.51
2023-03-17T11:31:39.198Z,25.50
2023-03-17T11:34:12.558Z,25.21
2023-03-17T11:37:00.253Z,25.47
2023-03-17T11:39:33.998Z,25.95
2023-03-17T11:42:20.098Z,26.57
2023-03-17T11:45:03.865Z,25.96
2023-03-17T11:47:32.142Z,25.69
2023-03-17T11:50:08.807Z,25.65
2023-03-17T11:52:48.453Z,26.00
2023-03-17T11:55:20.892Z,25.89
2023-03-17T11:57:48.344Z,25.99
2023-03-17T12:00:30.117Z,26.10
2023-03-17T12:03:00.298Z,25.92
2023-03-17T12:05:28.668Z,24.81
2023-03-17T12:08:05.038Z,25.26
2023-03-17T12:10:40.617Z,26.36
2023-03-17T12:13:20.931Z,25.76
2023-03-17T12:15:54.104Z,25.11
2023-03-17T12:18:25.740Z,24.63
2023-03-17T12:20:58.606Z,25.66
2023-03-17T12:23:33.221Z,25.01
2023-03-17T12:26:06.879Z,25.72
2023-03-17T12:28:49.260Z,26.39
2023-03-17T12:31:29.027Z,27.02
2023-03-17T12:34:18.593Z,26.76
2023-03-17T12:36:46.096Z,27.06
2023-03-17T12:39:18.393Z,26.63
2023-03-17T12:42:01.695Z,26.25
2023-03-17T12:44:35.465Z,26.44
2023-03-17T12:47:08.852Z,26.07
2023-03-17T12:49:42.353Z,26.47
2023-03-17T12:52:15.468Z,26.46
2023-03-17T12:54:45.970Z,25.98
2023-03-17T12:57:27.119Z,25.72
2023-03-17T13:00:15.590Z,25.02
2023-03-17T13:02:46.351Z,24.95
2023-03-17T13:05:15.088Z,25.29
2023-03-17T13:07:45.336Z,26.17
2023-03-17T13:10:18.938Z,25.23
2023-03-17T13:12:49.371Z,25.95
2023-03-17T13:15:22.927Z,25.66
2023-03-17T13:17:50.525Z,25.40
2023-03-17T13:20:21.009Z,26.56
2023-03-17T13:23:00.620Z,26.39
2023-03-17T13:25:30.943Z,26.21
2023-03-17T13:28:13.633Z,26.03
2023-03-17T13:30:42.656Z,25.51
2023-03-17T13:33:10.060Z,26.23
2023-03-17T13:35:46.927Z,26.17
2023-03-17T13:38:29.694Z,26.27
2023-03-17T13:40:56.928Z,26.71
2023-03-17T13:43:43.613Z,26.05
2023-03-17T13:46:20.266Z,26.11
2023-03-17T13:48:48.035Z,26.23
2023-03-17T13:51:21.067Z,26.99
2023-03-17T13:53:51.636Z,26.36
2023-03-17T13:56:46.956Z,26.29
2023-03-17T13:59:15.140Z,25.65
2023-03-17T14:01:54.233Z,25.54
2023-03-17T14:04:25.704Z,26.25
2023-03-17T14:06:55.426Z,25.99
2023-03-17T14:09:22.722Z,26.13
2023-03-17T14:11:50.905Z,25.71
2023-03-17T14:14:33.379Z,25.90
2023-03-17T14:17:09.851Z,25.35
2023-03-17T14:19:41.631Z,25.43
2023-03-17T14:22:19.947Z,25.49
2023-03-17T14:24:51.155Z,24.87
2023-03-17T14:27:18.831Z,26.41
2023-03-17T14:29:47.386Z,26.37
2023-03-17T14:32:16.092Z,25.75
2023-03-17T14:34:53.144Z,26.11
2023-03-17T14:37:20.707Z,27.10
2023-03-17T14:39:49.329Z,27.31
2023-03-17T14:42:17.986Z,27.52
2023-03-17T14:44:45.543Z,27.51
2023-03-17T14:47:14.915Z,27.30
2023-03-17T14:49:42.363Z,26.54
2023-03-17T14:52:25.133Z,26.82
2023-03-17T14:54:53.685Z,27.11
2023-03-17T14:57:22.778Z,26.69
2023-03-17T14:59:57.813Z,26.10
2023-03-17T15:02:34.438Z,26.72
2023-03-17T15:05:22.045Z,27.13
2023-03-17T15:07:49.408Z,26.76
2023-03-17T15:10:17.954Z,27.01
2023-03-17T15:12:49.138Z,26.89
2023-03-17T15:15:27.159Z,27.23
2023-03-17T15:17:55.970Z,27.35
2023-03-17T15:20:23.386Z,27.20
2023-03-17T15:23:14.282Z,27.36
2023-03-17T15:25:46.401Z,26.45
2023-03-17T15:28:15.489Z,27.27
2023-03-17T15:30:47.442Z,27.55
2023-03-17T15:33:37.945Z,27.27
2023-03-17T15:36:05.860Z,27.20
2023-03-17T15:38:34.491Z,26.84
2023-03-17T15:41:02.174Z,26.17
2023-03-17T15:43:29.382Z,26.65
2023-03-17T15:46:01.452Z,27.21
2023-03-17T15:48:31.517Z,26.28
2023-03-17T15:51:00.168Z,26.53
2023-03-17T15:53:27.687Z,26.74
2023-03-17T15:55:55.142Z,24.89
2023-03-17T15:58:22.361Z,25.37
2023-03-17T16:00:51.855Z,25.72
2023-03-17T16:03:29.665Z,26.52
2023-03-17T16:05:57.873Z,25.79
2023-03-17T16:08:25.147Z,26.39
2023-03-17T16:10:52.430Z,26.97
2023-03-17T16:13:20.445Z,27.04
2023-03-17T16:15:52.721Z,26.50
2023-03-17T16:18:23.067Z,27.01
2023-03-17T16:20:50.991Z,26.94
2023-03-17T16:23:23.065Z,26.61
2023-03-17T16:25:51.682Z,26.51
2023-03-17T16:28:20.804Z,27.23
2023-03-17T16:30:48.779Z,26.91
2023-03-17T16:33:20.579Z,27.36
2023-03-17T16:35:52.488Z,26.96
2023-03-17T16:38:20.932Z,27.06
2023-03-17T16:40:50.442Z,27.16
2023-03-17T16:43:25.569Z,26.29
2023-03-17T16:45:58.158Z,27.26
2023-03-17T16:48:26.105Z,26.78
2023-03-17T16:50:53.455Z,26.37
2023-03-17T16:53:20.846Z,27.15
2023-03-17T16:55:48.179Z,27.15
2023-03-17T16:58:23.422Z,26.49
2023-03-17T17:00:52.419Z,27.38
2023-03-17T17:03:19.828Z,27.29
2023-03-17T17:05:47.579Z,26.92
2023-03-17T17:08:14.842Z,27.25
2023-03-17T17:10:42.159Z,27.10
2023-03-17T17:13:09.834Z,27.08
2023-03-17T17:15:37.802Z,27.12
2023-03-17T17:18:07.124Z,27.04
2023-03-17T17:20:36.049Z,27.41
2023-03-17T17:23:03.739Z,27.71
2023-03-17T17:25:31.463Z,27.19
2023-03-17T17:27:59.218Z,27.19
2023-03-17T17:30:28.366Z,26.85
2023-03-17T17:32:57.682Z,27.53
2023-03-17T17:35:26.015Z,26.81
2023-03-17T17:37:53.623Z,27.21
2023-03-17T17:40:21.914Z,27.42
2023-03-17T17:42:49.146Z,26.43
2023-03-17T17:45:16.554Z,27.58
2023-03-17T17:47:43.802Z,27.51
2023-03-17T17:50:16.428Z,27.35
2023-03-17T17:52:43.697Z,27.52
2023-03-17T17:55:11.102Z,27.41
2023-03-17T17:57:38.565Z,27.54
2023-03-17T18:00:06.686Z,27.38
2023-03-17T18:02:36.349Z,27.02
2023-03-17T18:05:05.965Z,27.69
2023-03-17T18:07:33.267Z,27.64
2023-03-17T18:10:00.618Z,27.61
2023-03-17T18:12:28.220Z,27.91
2023-03-17T18:14:55.764Z,28.21
2023-03-17T18:17:23.070Z,27.94
2023-03-17T18:19:53.000Z,28.26
2023-03-17T18:22:21.561Z,28.18
2023-03-17T18:24:49.419Z,27.96
2023-03-17T18:27:17.049Z,28.03
2023-03-17T18:29:44.258Z,28.22
2023-03-17T18:32:12.244Z,28.06
2023-03-17T18:34:46.529Z,28.04
2023-03-17T18:37:15.324Z,28.11
2023-03-17T18:39:42.899Z,28.12
2023-03-17T18:42:10.847Z,28.00
2023-03-17T18:44:38.154Z,28.24
2023-03-17T18:47:05.596Z,27.70
2023-03-17T18:49:32.977Z,27.44
2023-03-17T18:52:00.911Z,28.22
2023-03-17T18:54:28.384Z,27.58
2023-03-17T18:56:56.497Z,27.85
2023-03-17T18:59:23.763Z,27.93
2023-03-17T19:01:51.303Z,28.03
2023-03-17T19:04:18.829Z,28.42
2023-03-17T19:06:46.638Z,28.31
2023-03-17T19:09:14.266Z,28.06
2023-03-17T19:11:42.047Z,27.54
2023-03-17T19:14:09.944Z,27.14
2023-03-17T19:16:37.495Z,27.18
2023-03-17T19:19:04.968Z,27.00
2023-03-17T19:21:32.659Z,26.79
2023-03-17T19:24:00.913Z,27.32
2023-03-17T19:26:28.651Z,27.50
2023-03-17T19:28:56.843Z,27.06
2023-03-17T19:31:24.928Z,26.51
2023-03-17T19:33:52.583Z,27.02
2023-03-17T19:36:19.975Z,27.10
2023-03-17T19:38:47.205Z,26.90
2023-03-17T19:41:15.685Z,27.00
2023-03-17T19:43:42.909Z,27.72
2023-03-17T19:46:11.447Z,26.77
2023-03-17T19:48:39.351Z,26.89
2023-03-17T19:51:06.932Z,26.90
2023-03-17T19:53:34.398Z,26.99
2023-03-17T19:56:01.633Z,26.81
2023-03-17T19:58:28.849Z,26.51
2023-03-17T20:00:56.406Z,26.96
2023-03-17T20:03:26.087Z,26.99
2023-03-17T20:05:53.712Z,27.02
2023-03-17T20:08:22.547Z,27.71
2023-03-17T20:10:52.134Z,27.55
2023-03-17T20:13:20.698Z,27.04
2023-03-17T20:15:49.004Z,26.70
2023-03-17T20:18:17.185Z,26.59
2023-03-17T20:20:49.548Z,26.30
2023-03-17T20:23:17.625Z,26.17
2023-03-17T20:25:44.878Z,26.70
2023-03-17T20:28:12.771Z,26.56
2023-03-17T20:30:40.523Z,27.30
2023-03-17T20:33:09.897Z,27.00
2023-03-17T20:35:38.143Z,27.22
2023-03-17T20:38:05.582Z,26.98
2023-03-17T20:40:33.048Z,26.50
2023-03-17T20:43:00.443Z,26.32
2023-03-17T20:45:28.217Z,26.11
2023-03-17T20:47:56.113Z,26.77
2023-03-17T20:50:23.605Z,26.65
2023-03-17T20:52:51.101Z,26.44
2023-03-17T20:55:19.757Z,26.57
2023-03-17T20:57:47.600Z,26.89
2023-03-17T21:00:17.953Z,27.03
2023-03-17T21:02:46.332Z,26.52
2023-03-17T21:05:14.629Z,27.10
2023-03-17T21:07:42.110Z,27.10
2023-03-17T21:10:09.720Z,27.46
2023-03-17T21:12:37.032Z,26.95
2023-03-17T21:15:04.630Z,27.00
2023-03-17T21:17:32.697Z,26.65
2023-03-17T21:20:00.022Z,26.59
2023-03-17T21:22:27.373Z,26.66
2023-03-17T21:24:55.503Z,26.53
2023-03-17T21:27:25.767Z,26.52
2023-03-17T21:29:53.167Z,26.85
2023-03-17T21:32:20.395Z,27.31
2023-03-17T21:34:48.217Z,26.32
2023-03-17T21:37:18.605Z,26.93
2023-03-17T21:39:45.952Z,26.41
2023-03-17T21:42:13.669Z,26.38
2023-03-17T21:44:41.047Z,26.62
2023-03-17T21:47:08.303Z,26.54
2023-03-17T21:49:35.607Z,26.19
2023-03-17T21:52:02.976Z,26.23
2023-03-17T21:54:30.622Z,26.89
2023-03-17T21:56:58.446Z,26.05
2023-03-17T21:59:26.166Z,26.36
2023-03-17T22:01:53.755Z,26.26
2023-03-17T22:04:20.997Z,26.87
2023-03-17T22:06:48.262Z,26.22
2023-03-17T22:09:18.194Z,26.67
2023-03-17T22:11:46.649Z,26.42
2023-03-17T22:14:17.419Z,26.18
2023-03-17T22:16:44.772Z,27.30
2023-03-17T22:19:12.166Z,26.98
2023-03-17T22:21:39.531Z,27.37
2023-03-17T22:24:07.368Z,26.90
2023-03-17T22:26:34.831Z,26.32
2023-03-17T22:29:02.623Z,26.34
2023-03-17T22:31:30.194Z,25.97
2023-03-17T22:33:58.638Z,26.72
2023-03-17T22:36:26.686Z,26.97
2023-03-17T22:38:54.500Z,26.50
2023-03-17T22:41:23.693Z,25.91
2023-03-17T22:43:51.082Z,25.72
2023-03-17T22:46:19.023Z,25.75
2023-03-17T22:48:46.798Z,26.52
2023-03-17T22:51:16.499Z,26.25
2023-03-17T22:53:43.901Z,26.33
2023-03-17T22:56:12.457Z,26.76
2023-03-17T22:58:40.640Z,26.67
2023-03-17T23:01:08.488Z,27.19
2023-03-17T23:03:36.253Z,26.79
2023-03-17T23:06:04.183Z,26.52
2023-03-17T23:08:35.170Z,26.15
2023-03-17T23:11:07.143Z,26.22
2023-03-17T23:13:35.354Z,26.13
2023-03-17T23:16:03.282Z,25.61
2023-03-17T23:18:31.121Z,25.98
2023-03-17T23:20:58.903Z,26.32
2023-03-17T23:23:26.378Z,25.89
2023-03-17T23:25:53.826Z,25.97
2023-03-17T23:28:21.244Z,26.32
2023-03-17T23:30:48.713Z,26.13
2023-03-17T23:33:17.530Z,26.10
2023-03-17T23:35:46.191Z,26.26
2023-03-17T23:38:13.624Z,25.81
2023-03-17T23:40:41.332Z,26.85
2023-03-17T23:43:08.540Z,25.78
2023-03-17T23:45:35.760Z,26.18
2023-03-17T23:48:03.131Z,26.30
2023-03-17T23:50:31.994Z,26.36
2023-03-17T23:52:59.406Z,25.88
2023-03-17T23:55:26.660Z,26.31
2023-03-17T23:57:54.037Z,26.15
